Time;durP1;ratioP1;P1;durP2;ratioP2;P2;SDS_P1;SDS_P2;PMS_P1;PMS_P2;Temp;Humidity;BMP_temperature;BMP_pressure;BME280_temperature;BME280_humidity;BME280_pressure;Samples;Min_cycle;Max_cycle;Signal;HPM_P1;HPM_P2
2023/02/04 00:00:00;;;;;;;1.2;1.2;;;;;;;8.0;100.0;103020;;;;
2023/02/04 00:01:00;;;;;;;1.2;1.2;;;;;;;8.0;100.0;103020;;;;
2023/02/04 00:02:00;;;;;;;1.2;1.2;;;;;;;8.0;100.0;103020;;;;
2023/02/04 00:03:00;;;;;;;1.2;1.2;;;;;;;7.9;100.0;103020;;;;
2023/02/04 00:04:00;;;;;;;1.2;1.2;;;;;;;7.9;100.0;103020;;;;
2023/02/04 00:05:00;;;;;;;1.2;1.2;;;;;;;8.0;100.0;103020;;;;
2023/02/04 00:06:00;;;;;;;1.2;1.2;;;;;;;8.0;100.0;103020;;;;
2023/02/04 00:07:00;;;;;;;1.2;1.2;;;;;;;8.0;100.0;103020;;;;
2023/02/04 00:08:00;;;;;;;1.2;1.2;;;;;;;8.0;100.0;103020;;;;
2023/02/04 00:09:00;;;;;;;1.2;1.2;;;;;;;8.0;100.0;103020;;;;
2023/02/04 00:10:00;;;;;;;1.2;1.2;;;;;;;8.0;100.0;103020;;;;
2023/02/04 00:11:00;;;;;;;1.2;1.2;;;;;;;8.0;100.0;103020;;;;
2023/02/04 00:12:00;;;;;;;1.2;1.2;;;;;;;8.0;100.0;103020;;;;
2023/02/04 00:13:00;;;;;;;1.2;1.2;;;;;;;7.9;100.0;103030;;;;
2023/02/04 00:14:00;;;;;;;1.2;1.2;;;;;;;7.9;100.0;103030;;;;
2023/02/04 00:15:00;;;;;;;1.2;1.2;;;;;;;8.0;100.0;103030;;;;
2023/02/04 00:16:00;;;;;;;1.2;1.2;;;;;;;8.0;100.0;103030;;;;
2023/02/04 00:17:00;;;;;;;1.2;1.2;;;;;;;8.0;100.0;103030;;;;
2023/02/04 00:18:00;;;;;;;1.2;1.2;;;;;;;8.0;100.0;103030;;;;
2023/02/04 00:19:00;;;;;;;1.2;1.2;;;;;;;7.9;100.0;103030;;;;
2023/02/04 00:20:00;;;;;;;1.2;1.2;;;;;;;7.9;100.0;103030;;;;
2023/02/04 00:21:00;;;;;;;1.2;1.2;;;;;;;8.0;100.0;103030;;;;
2023/02/04 00:22:02;;;;;;;1.2;1.2;;;;;;;8.0;100.0;103030;;;;
2023/02/04 00:23:00;;;;;;;1.2;1.2;;;;;;;8.0;100.0;103030;;;;
2023/02/04 00:24:00;;;;;;;1.2;1.2;;;;;;;8.0;100.0;103030;;;;
2023/02/04 00:25:00;;;;;;;1.2;1.2;;;;;;;7.9;100.0;103040;;;;
2023/02/04 00:26:00;;;;;;;1.2;1.2;;;;;;;7.9;100.0;103040;;;;
2023/02/04 00:27:01;;;;;;;1.2;1.2;;;;;;;7.9;100.0;103030;;;;
2023/02/04 00:28:00;;;;;;;1.2;1.2;;;;;;;7.9;100.0;103030;;;;
2023/02/04 00:29:00;;;;;;;1.2;1.2;;;;;;;7.9;100.0;103040;;;;
2023/02/04 00:30:00;;;;;;;1.2;1.2;;;;;;;7.9;100.0;103040;;;;
2023/02/04 00:31:00;;;;;;;1.2;1.2;;;;;;;7.8;100.0;103040;;;;
2023/02/04 00:32:00;;;;;;;1.2;1.2;;;;;;;7.8;100.0;103040;;;;
2023/02/04 00:33:00;;;;;;;1.2;1.2;;;;;;;7.8;100.0;103040;;;;
2023/02/04 00:34:00;;;;;;;1.2;1.2;;;;;;;7.8;100.0;103040;;;;
2023/02/04 00:35:03;;;;;;;1.2;1.2;;;;;;;7.9;100.0;103030;;;;
2023/02/04 00:36:00;;;;;;;1.2;1.2;;;;;;;7.9;100.0;103030;;;;
2023/02/04 00:37:00;;;;;;;1.2;1.2;;;;;;;7.8;100.0;103040;;;;
2023/02/04 00:38:00;;;;;;;1.3;1.3;;;;;;;7.8;100.0;103040;;;;
2023/02/04 00:39:00;;;;;;;1.3;1.3;;;;;;;7.8;100.0;103030;;;;
2023/02/04 00:40:00;;;;;;;1.3;1.3;;;;;;;7.8;100.0;103030;;;;
2023/02/04 00:41:00;;;;;;;1.3;1.3;;;;;;;7.8;100.0;103030;;;;
2023/02/04 00:42:00;;;;;;;1.3;1.3;;;;;;;7.8;100.0;103030;;;;
2023/02/04 00:43:00;;;;;;;1.3;1.3;;;;;;;7.8;100.0;103030;;;;
2023/02/04 00:44:00;;;;;;;1.3;1.3;;;;;;;7.8;100.0;103030;;;;
2023/02/04 00:45:00;;;;;;;1.3;1.3;;;;;;;7.8;100.0;103040;;;;
2023/02/04 00:46:00;;;;;;;1.3;1.3;;;;;;;7.8;100.0;103040;;;;
2023/02/04 00:47:00;;;;;;;1.3;1.3;;;;;;;7.8;100.0;103030;;;;
2023/02/04 00:48:00;;;;;;;1.3;1.3;;;;;;;7.8;100.0;103030;;;;
2023/02/04 00:49:00;;;;;;;1.3;1.3;;;;;;;7.8;100.0;103040;;;;
2023/02/04 00:50:00;;;;;;;1.3;1.3;;;;;;;7.8;100.0;103040;;;;
2023/02/04 00:51:01;;;;;;;1.3;1.3;;;;;;;7.7;100.0;103040;;;;
2023/02/04 00:52:00;;;;;;;1.3;1.3;;;;;;;7.7;100.0;103040;;;;
2023/02/04 00:53:00;;;;;;;1.3;1.3;;;;;;;7.8;100.0;103040;;;;
2023/02/04 00:54:00;;;;;;;1.3;1.3;;;;;;;7.8;100.0;103040;;;;
2023/02/04 00:55:00;;;;;;;1.3;1.3;;;;;;;7.8;100.0;103040;;;;
2023/02/04 00:56:00;;;;;;;1.3;1.3;;;;;;;7.8;100.0;103040;;;;
2023/02/04 00:57:00;;;;;;;1.3;1.3;;;;;;;7.7;100.0;103050;;;;
2023/02/04 00:58:00;;;;;;;1.2;1.2;;;;;;;7.7;100.0;103050;;;;
2023/02/04 00:59:00;;;;;;;1.2;1.2;;;;;;;7.7;100.0;103050;;;;
2023/02/04 01:00:00;;;;;;;1.2;1.2;;;;;;;7.7;100.0;103050;;;;
2023/02/04 01:01:00;;;;;;;1.2;1.2;;;;;;;7.7;100.0;103040;;;;
2023/02/04 01:02:00;;;;;;;1.2;1.2;;;;;;;7.7;100.0;103040;;;;
2023/02/04 01:03:00;;;;;;;1.2;1.2;;;;;;;7.7;100.0;103050;;;;
2023/02/04 01:04:00;;;;;;;1.2;1.2;;;;;;;7.7;100.0;103050;;;;
2023/02/04 01:05:00;;;;;;;1.2;1.2;;;;;;;7.6;100.0;103050;;;;
2023/02/04 01:06:00;;;;;;;1.2;1.2;;;;;;;7.6;100.0;103050;;;;
2023/02/04 01:07:00;;;;;;;1.2;1.2;;;;;;;7.6;100.0;103060;;;;
2023/02/04 01:08:00;;;;;;;1.2;1.2;;;;;;;7.6;100.0;103060;;;;
2023/02/04 01:09:01;;;;;;;1.2;1.2;;;;;;;7.5;100.0;103060;;;;
2023/02/04 01:10:00;;;;;;;1.2;1.2;;;;;;;7.5;100.0;103060;;;;
2023/02/04 01:11:00;;;;;;;1.2;1.2;;;;;;;7.5;100.0;103060;;;;
2023/02/04 01:12:00;;;;;;;1.2;1.2;;;;;;;7.5;100.0;103060;;;;
2023/02/04 01:13:00;;;;;;;1.2;1.2;;;;;;;7.5;100.0;103060;;;;
2023/02/04 01:14:00;;;;;;;1.2;1.2;;;;;;;7.5;100.0;103060;;;;
2023/02/04 01:15:00;;;;;;;1.2;1.2;;;;;;;7.4;100.0;103060;;;;
2023/02/04 01:16:00;;;;;;;1.2;1.2;;;;;;;7.4;100.0;103060;;;;
2023/02/04 01:17:00;;;;;;;1.2;1.2;;;;;;;7.5;100.0;103070;;;;
2023/02/04 01:18:00;;;;;;;1.2;1.2;;;;;;;7.5;100.0;103070;;;;
2023/02/04 01:19:00;;;;;;;1.2;1.2;;;;;;;7.4;100.0;103070;;;;
2023/02/04 01:20:00;;;;;;;1.2;1.2;;;;;;;7.4;100.0;103070;;;;
2023/02/04 01:21:00;;;;;;;1.2;1.2;;;;;;;7.3;100.0;103070;;;;
2023/02/04 01:22:00;;;;;;;1.2;1.2;;;;;;;7.3;100.0;103070;;;;
2023/02/04 01:23:00;;;;;;;1.2;1.2;;;;;;;7.3;100.0;103080;;;;
2023/02/04 01:24:00;;;;;;;1.2;1.2;;;;;;;7.3;100.0;103080;;;;
2023/02/04 01:25:00;;;;;;;1.2;1.2;;;;;;;7.2;100.0;103080;;;;
2023/02/04 01:26:00;;;;;;;1.2;1.2;;;;;;;7.2;100.0;103080;;;;
2023/02/04 01:27:00;;;;;;;1.2;1.2;;;;;;;7.3;100.0;103080;;;;
2023/02/04 01:28:00;;;;;;;1.2;1.2;;;;;;;7.3;100.0;103080;;;;
2023/02/04 01:29:00;;;;;;;1.2;1.2;;;;;;;7.2;100.0;103080;;;;
2023/02/04 01:30:00;;;;;;;1.2;1.2;;;;;;;7.2;100.0;103080;;;;
2023/02/04 01:31:00;;;;;;;1.2;1.2;;;;;;;7.2;100.0;103080;;;;
2023/02/04 01:32:00;;;;;;;1.2;1.2;;;;;;;7.2;100.0;103080;;;;
2023/02/04 01:33:00;;;;;;;1.2;1.2;;;;;;;7.1;100.0;103080;;;;
2023/02/04 01:34:00;;;;;;;1.2;1.2;;;;;;;7.1;100.0;103080;;;;
2023/02/04 01:35:00;;;;;;;1.2;1.2;;;;;;;7.2;100.0;103080;;;;
2023/02/04 01:36:00;;;;;;;1.2;1.2;;;;;;;7.2;100.0;103080;;;;
2023/02/04 01:37:00;;;;;;;1.2;1.2;;;;;;;7.1;100.0;103080;;;;
2023/02/04 01:38:00;;;;;;;1.4;1.4;;;;;;;7.1;100.0;103080;;;;
2023/02/04 01:39:00;;;;;;;1.4;1.4;;;;;;;7.1;100.0;103080;;;;
2023/02/04 01:40:00;;;;;;;1.4;1.4;;;;;;;7.1;100.0;103080;;;;
2023/02/04 01:41:01;;;;;;;1.4;1.4;;;;;;;7.1;100.0;103080;;;;
2023/02/04 01:42:00;;;;;;;1.4;1.4;;;;;;;7.1;100.0;103080;;;;
2023/02/04 01:43:00;;;;;;;1.4;1.4;;;;;;;7.0;100.0;103090;;;;
2023/02/04 01:44:00;;;;;;;1.4;1.4;;;;;;;7.0;100.0;103090;;;;
2023/02/04 01:45:00;;;;;;;1.4;1.4;;;;;;;7.0;100.0;103090;;;;
2023/02/04 01:46:01;;;;;;;1.4;1.4;;;;;;;7.0;100.0;103090;;;;
2023/02/04 01:47:00;;;;;;;1.4;1.4;;;;;;;6.9;100.0;103090;;;;
2023/02/04 01:48:01;;;;;;;1.4;1.4;;;;;;;6.9;100.0;103090;;;;
2023/02/04 01:49:00;;;;;;;1.4;1.4;;;;;;;6.9;100.0;103090;;;;
2023/02/04 01:50:01;;;;;;;1.4;1.4;;;;;;;6.9;100.0;103090;;;;
2023/02/04 01:51:04;;;;;;;1.4;1.4;;;;;;;6.9;100.0;103100;;;;
2023/02/04 01:52:01;;;;;;;1.4;1.4;;;;;;;6.9;100.0;103100;;;;
2023/02/04 01:53:00;;;;;;;1.4;1.4;;;;;;;6.9;100.0;103100;;;;
2023/02/04 01:54:00;;;;;;;1.4;1.4;;;;;;;6.9;100.0;103100;;;;
2023/02/04 01:55:00;;;;;;;1.4;1.4;;;;;;;6.8;100.0;103100;;;;
2023/02/04 01:56:00;;;;;;;1.4;1.4;;;;;;;6.8;100.0;103100;;;;
2023/02/04 01:57:01;;;;;;;1.4;1.4;;;;;;;6.8;100.0;103110;;;;
2023/02/04 01:58:01;;;;;;;1.5;1.5;;;;;;;6.8;100.0;103110;;;;
2023/02/04 01:59:00;;;;;;;1.5;1.5;;;;;;;6.8;100.0;103110;;;;
2023/02/04 02:00:00;;;;;;;1.5;1.5;;;;;;;6.8;100.0;103110;;;;
2023/02/04 02:01:00;;;;;;;1.5;1.5;;;;;;;6.7;100.0;103110;;;;
2023/02/04 02:02:00;;;;;;;1.5;1.5;;;;;;;6.7;100.0;103110;;;;
2023/02/04 02:03:02;;;;;;;1.5;1.5;;;;;;;6.8;100.0;103110;;;;
2023/02/04 02:04:00;;;;;;;1.5;1.5;;;;;;;6.8;100.0;103110;;;;
2023/02/04 02:05:00;;;;;;;1.5;1.5;;;;;;;6.7;100.0;103110;;;;
2023/02/04 02:06:00;;;;;;;1.5;1.5;;;;;;;6.7;100.0;103110;;;;
2023/02/04 02:07:02;;;;;;;1.5;1.5;;;;;;;6.8;100.0;103110;;;;
2023/02/04 02:08:02;;;;;;;1.5;1.5;;;;;;;6.8;100.0;103110;;;;
2023/02/04 02:09:01;;;;;;;1.5;1.5;;;;;;;6.7;100.0;103120;;;;
2023/02/04 02:10:01;;;;;;;1.5;1.5;;;;;;;6.7;100.0;103120;;;;
2023/02/04 02:11:00;;;;;;;1.5;1.5;;;;;;;6.7;100.0;103120;;;;
2023/02/04 02:12:01;;;;;;;1.5;1.5;;;;;;;6.7;100.0;103120;;;;
2023/02/04 02:13:00;;;;;;;1.5;1.5;;;;;;;6.7;100.0;103120;;;;
2023/02/04 02:14:00;;;;;;;1.5;1.5;;;;;;;6.7;100.0;103120;;;;
2023/02/04 02:15:00;;;;;;;1.5;1.5;;;;;;;6.7;100.0;103120;;;;
2023/02/04 02:16:00;;;;;;;1.5;1.5;;;;;;;6.7;100.0;103120;;;;
2023/02/04 02:17:00;;;;;;;1.5;1.5;;;;;;;6.7;100.0;103120;;;;
2023/02/04 02:18:00;;;;;;;1.6;1.6;;;;;;;6.7;100.0;103120;;;;
2023/02/04 02:19:00;;;;;;;1.6;1.6;;;;;;;6.8;100.0;103120;;;;
2023/02/04 02:20:00;;;;;;;1.6;1.6;;;;;;;6.8;100.0;103120;;;;
2023/02/04 02:21:04;;;;;;;1.6;1.6;;;;;;;6.8;100.0;103120;;;;
2023/02/04 02:22:04;;;;;;;1.6;1.6;;;;;;;6.8;100.0;103120;;;;
2023/02/04 02:23:04;;;;;;;1.6;1.6;;;;;;;6.8;100.0;103130;;;;
2023/02/04 02:24:10;;;;;;;1.6;1.6;;;;;;;6.8;100.0;103130;;;;
2023/02/04 02:25:00;;;;;;;1.6;1.6;;;;;;;6.8;100.0;103130;;;;
2023/02/04 02:26:00;;;;;;;1.6;1.6;;;;;;;6.8;100.0;103130;;;;
2023/02/04 02:27:07;;;;;;;1.6;1.6;;;;;;;6.8;100.0;103130;;;;
2023/02/04 02:28:09;;;;;;;1.6;1.6;;;;;;;6.8;100.0;103130;;;;
2023/02/04 02:29:00;;;;;;;1.6;1.6;;;;;;;6.9;100.0;103130;;;;
2023/02/04 02:30:00;;;;;;;1.6;1.6;;;;;;;6.9;100.0;103130;;;;
2023/02/04 02:31:00;;;;;;;1.6;1.6;;;;;;;6.9;100.0;103130;;;;
2023/02/04 02:32:00;;;;;;;1.6;1.6;;;;;;;6.9;100.0;103130;;;;
2023/02/04 02:33:00;;;;;;;1.6;1.6;;;;;;;6.9;100.0;103130;;;;
2023/02/04 02:34:00;;;;;;;1.6;1.6;;;;;;;6.9;100.0;103130;;;;
2023/02/04 02:35:00;;;;;;;1.6;1.6;;;;;;;6.9;100.0;103130;;;;
2023/02/04 02:36:00;;;;;;;1.6;1.6;;;;;;;6.9;100.0;103130;;;;
2023/02/04 02:37:01;;;;;;;1.6;1.6;;;;;;;6.9;100.0;103130;;;;
2023/02/04 02:38:00;;;;;;;1.3;1.3;;;;;;;6.9;100.0;103130;;;;
2023/02/04 02:39:00;;;;;;;1.3;1.3;;;;;;;6.9;100.0;103140;;;;
2023/02/04 02:40:00;;;;;;;1.3;1.3;;;;;;;6.9;100.0;103140;;;;
2023/02/04 02:41:00;;;;;;;1.3;1.3;;;;;;;6.9;100.0;103140;;;;
2023/02/04 02:42:00;;;;;;;1.3;1.3;;;;;;;6.9;100.0;103140;;;;
2023/02/04 02:43:00;;;;;;;1.3;1.3;;;;;;;6.9;100.0;103140;;;;
2023/02/04 02:44:01;;;;;;;1.3;1.3;;;;;;;6.9;100.0;103140;;;;
2023/02/04 02:45:02;;;;;;;1.3;1.3;;;;;;;6.9;100.0;103140;;;;
2023/02/04 02:46:00;;;;;;;1.3;1.3;;;;;;;6.9;100.0;103140;;;;
2023/02/04 02:47:00;;;;;;;1.3;1.3;;;;;;;6.9;100.0;103140;;;;
2023/02/04 02:48:02;;;;;;;1.3;1.3;;;;;;;6.9;100.0;103140;;;;
2023/02/04 02:49:00;;;;;;;1.3;1.3;;;;;;;6.9;100.0;103140;;;;
2023/02/04 02:50:00;;;;;;;1.3;1.3;;;;;;;6.9;100.0;103140;;;;
2023/02/04 02:51:00;;;;;;;1.3;1.3;;;;;;;7.0;100.0;103140;;;;
2023/02/04 02:52:00;;;;;;;1.3;1.3;;;;;;;7.0;100.0;103140;;;;
2023/02/04 02:53:00;;;;;;;1.3;1.3;;;;;;;7.0;100.0;103140;;;;
2023/02/04 02:54:00;;;;;;;1.3;1.3;;;;;;;7.0;100.0;103140;;;;
2023/02/04 02:55:00;;;;;;;1.3;1.3;;;;;;;7.0;100.0;103140;;;;
2023/02/04 02:56:03;;;;;;;1.3;1.3;;;;;;;7.0;100.0;103140;;;;
2023/02/04 02:57:00;;;;;;;1.3;1.3;;;;;;;7.0;100.0;103140;;;;
2023/02/04 02:58:00;;;;;;;1.3;1.3;;;;;;;7.0;100.0;103140;;;;
2023/02/04 02:59:10;;;;;;;1.3;1.3;;;;;;;7.0;100.0;103140;;;;
2023/02/04 03:00:00;;;;;;;1.3;1.3;;;;;;;7.0;100.0;103140;;;;
2023/02/04 03:01:02;;;;;;;1.3;1.3;;;;;;;6.9;100.0;103130;;;;
2023/02/04 03:02:02;;;;;;;1.3;1.3;;;;;;;6.9;100.0;103130;;;;
2023/02/04 03:03:10;;;;;;;1.3;1.3;;;;;;;6.9;100.0;103140;;;;
2023/02/04 03:04:01;;;;;;;1.3;1.3;;;;;;;6.9;100.0;103140;;;;
2023/02/04 03:05:00;;;;;;;1.3;1.3;;;;;;;6.8;100.0;103130;;;;
2023/02/04 03:06:06;;;;;;;1.3;1.3;;;;;;;6.8;100.0;103130;;;;
2023/02/04 03:07:01;;;;;;;1.3;1.3;;;;;;;6.9;100.0;103140;;;;
2023/02/04 03:08:00;;;;;;;1.3;1.3;;;;;;;6.9;100.0;103140;;;;
2023/02/04 03:09:00;;;;;;;1.3;1.3;;;;;;;6.8;100.0;103130;;;;
2023/02/04 03:10:01;;;;;;;1.3;1.3;;;;;;;6.8;100.0;103130;;;;
2023/02/04 03:11:00;;;;;;;1.3;1.3;;;;;;;6.9;100.0;103140;;;;
2023/02/04 03:12:01;;;;;;;1.3;1.3;;;;;;;6.9;100.0;103140;;;;
2023/02/04 03:13:01;;;;;;;1.3;1.3;;;;;;;6.8;100.0;103140;;;;
2023/02/04 03:14:01;;;;;;;1.3;1.3;;;;;;;6.8;100.0;103140;;;;
2023/02/04 03:15:01;;;;;;;1.3;1.3;;;;;;;6.7;100.0;103140;;;;
2023/02/04 03:16:00;;;;;;;1.3;1.3;;;;;;;6.7;100.0;103140;;;;
2023/02/04 03:17:01;;;;;;;1.3;1.3;;;;;;;6.7;100.0;103140;;;;
2023/02/04 03:18:01;;;;;;;1.9;1.9;;;;;;;6.7;100.0;103140;;;;
2023/02/04 03:19:00;;;;;;;1.9;1.9;;;;;;;6.7;100.0;103140;;;;
2023/02/04 03:20:01;;;;;;;1.9;1.9;;;;;;;6.7;100.0;103140;;;;
2023/02/04 03:21:01;;;;;;;1.9;1.9;;;;;;;6.6;100.0;103140;;;;
2023/02/04 03:22:01;;;;;;;1.9;1.9;;;;;;;6.6;100.0;103140;;;;
2023/02/04 03:23:00;;;;;;;1.9;1.9;;;;;;;6.6;100.0;103150;;;;
2023/02/04 03:24:00;;;;;;;1.9;1.9;;;;;;;6.6;100.0;103150;;;;
2023/02/04 03:25:00;;;;;;;1.9;1.9;;;;;;;6.6;100.0;103150;;;;
2023/02/04 03:26:00;;;;;;;1.9;1.9;;;;;;;6.6;100.0;103150;;;;
2023/02/04 03:27:00;;;;;;;1.9;1.9;;;;;;;6.6;100.0;103150;;;;
2023/02/04 03:28:00;;;;;;;1.9;1.9;;;;;;;6.6;100.0;103150;;;;
2023/02/04 03:29:00;;;;;;;1.9;1.9;;;;;;;6.6;100.0;103150;;;;
2023/02/04 03:30:00;;;;;;;1.9;1.9;;;;;;;6.6;100.0;103150;;;;
2023/02/04 03:31:01;;;;;;;1.9;1.9;;;;;;;6.4;100.0;103150;;;;
2023/02/04 03:32:01;;;;;;;1.9;1.9;;;;;;;6.4;100.0;103150;;;;
2023/02/04 03:33:00;;;;;;;1.9;1.9;;;;;;;6.4;100.0;103160;;;;
2023/02/04 03:34:00;;;;;;;1.9;1.9;;;;;;;6.4;100.0;103160;;;;
2023/02/04 03:35:00;;;;;;;1.9;1.9;;;;;;;6.4;100.0;103160;;;;
2023/02/04 03:36:00;;;;;;;1.9;1.9;;;;;;;6.4;100.0;103160;;;;
2023/02/04 03:37:00;;;;;;;1.9;1.9;;;;;;;6.4;100.0;103160;;;;
2023/02/04 03:38:00;;;;;;;1.6;1.6;;;;;;;6.4;100.0;103160;;;;
2023/02/04 03:39:00;;;;;;;1.6;1.6;;;;;;;6.5;100.0;103160;;;;
2023/02/04 03:40:00;;;;;;;1.6;1.6;;;;;;;6.5;100.0;103160;;;;
2023/02/04 03:41:00;;;;;;;1.6;1.6;;;;;;;6.4;100.0;103160;;;;
2023/02/04 03:42:00;;;;;;;1.6;1.6;;;;;;;6.4;100.0;103160;;;;
2023/02/04 03:43:00;;;;;;;1.6;1.6;;;;;;;6.5;100.0;103160;;;;
2023/02/04 03:44:00;;;;;;;1.6;1.6;;;;;;;6.5;100.0;103160;;;;
2023/02/04 03:45:00;;;;;;;1.6;1.6;;;;;;;6.5;100.0;103160;;;;
2023/02/04 03:46:00;;;;;;;1.6;1.6;;;;;;;6.5;100.0;103160;;;;
2023/02/04 03:47:00;;;;;;;1.6;1.6;;;;;;;6.5;100.0;103160;;;;
2023/02/04 03:48:00;;;;;;;1.6;1.6;;;;;;;6.5;100.0;103160;;;;
2023/02/04 03:49:00;;;;;;;1.6;1.6;;;;;;;6.4;100.0;103170;;;;
2023/02/04 03:50:00;;;;;;;1.6;1.6;;;;;;;6.4;100.0;103170;;;;
2023/02/04 03:51:00;;;;;;;1.6;1.6;;;;;;;6.5;100.0;103160;;;;
2023/02/04 03:52:01;;;;;;;1.6;1.6;;;;;;;6.5;100.0;103160;;;;
2023/02/04 03:53:00;;;;;;;1.6;1.6;;;;;;;6.6;100.0;103170;;;;
2023/02/04 03:54:00;;;;;;;1.6;1.6;;;;;;;6.6;100.0;103170;;;;
2023/02/04 03:55:00;;;;;;;1.6;1.6;;;;;;;6.5;100.0;103170;;;;
2023/02/04 03:56:00;;;;;;;1.6;1.6;;;;;;;6.5;100.0;103170;;;;
2023/02/04 03:57:00;;;;;;;1.6;1.6;;;;;;;6.6;100.0;103170;;;;
2023/02/04 03:58:01;;;;;;;1.5;1.5;;;;;;;6.6;100.0;103170;;;;
2023/02/04 03:59:00;;;;;;;1.5;1.5;;;;;;;6.6;100.0;103160;;;;
2023/02/04 04:00:00;;;;;;;1.5;1.5;;;;;;;6.6;100.0;103160;;;;
2023/02/04 04:01:00;;;;;;;1.5;1.5;;;;;;;6.6;100.0;103160;;;;
2023/02/04 04:02:00;;;;;;;1.5;1.5;;;;;;;6.6;100.0;103160;;;;
2023/02/04 04:03:00;;;;;;;1.5;1.5;;;;;;;6.6;100.0;103160;;;;
2023/02/04 04:04:00;;;;;;;1.5;1.5;;;;;;;6.6;100.0;103160;;;;
2023/02/04 04:05:00;;;;;;;1.5;1.5;;;;;;;6.7;100.0;103160;;;;
2023/02/04 04:06:00;;;;;;;1.5;1.5;;;;;;;6.7;100.0;103160;;;;
2023/02/04 04:07:00;;;;;;;1.5;1.5;;;;;;;6.7;100.0;103160;;;;
2023/02/04 04:08:00;;;;;;;1.5;1.5;;;;;;;6.7;100.0;103160;;;;
2023/02/04 04:09:00;;;;;;;1.5;1.5;;;;;;;6.7;100.0;103160;;;;
2023/02/04 04:10:00;;;;;;;1.5;1.5;;;;;;;6.7;100.0;103160;;;;
2023/02/04 04:11:00;;;;;;;1.5;1.5;;;;;;;6.7;100.0;103160;;;;
2023/02/04 04:12:02;;;;;;;1.5;1.5;;;;;;;6.7;100.0;103160;;;;
2023/02/04 04:13:00;;;;;;;1.5;1.5;;;;;;;6.7;100.0;103160;;;;
2023/02/04 04:14:00;;;;;;;1.5;1.5;;;;;;;6.7;100.0;103160;;;;
2023/02/04 04:15:00;;;;;;;1.5;1.5;;;;;;;6.8;100.0;103160;;;;
2023/02/04 04:16:02;;;;;;;1.5;1.5;;;;;;;6.8;100.0;103160;;;;
2023/02/04 04:17:00;;;;;;;1.5;1.5;;;;;;;6.7;100.0;103170;;;;
2023/02/04 04:18:01;;;;;;;1.3;1.3;;;;;;;6.7;100.0;103170;;;;
2023/02/04 04:19:00;;;;;;;1.3;1.3;;;;;;;6.7;100.0;103170;;;;
2023/02/04 04:20:00;;;;;;;1.3;1.3;;;;;;;6.7;100.0;103170;;;;
2023/02/04 04:21:00;;;;;;;1.3;1.3;;;;;;;6.7;100.0;103170;;;;
2023/02/04 04:22:00;;;;;;;1.3;1.3;;;;;;;6.7;100.0;103170;;;;
2023/02/04 04:23:00;;;;;;;1.3;1.3;;;;;;;6.8;100.0;103170;;;;
2023/02/04 04:24:00;;;;;;;1.3;1.3;;;;;;;6.8;100.0;103170;;;;
2023/02/04 04:25:00;;;;;;;1.3;1.3;;;;;;;6.7;100.0;103170;;;;
2023/02/04 04:26:00;;;;;;;1.3;1.3;;;;;;;6.7;100.0;103170;;;;
2023/02/04 04:27:00;;;;;;;1.3;1.3;;;;;;;6.7;100.0;103180;;;;
2023/02/04 04:28:00;;;;;;;1.3;1.3;;;;;;;6.7;100.0;103180;;;;
2023/02/04 04:29:00;;;;;;;1.3;1.3;;;;;;;6.6;100.0;103180;;;;
2023/02/04 04:30:00;;;;;;;1.3;1.3;;;;;;;6.6;100.0;103180;;;;
2023/02/04 04:31:00;;;;;;;1.3;1.3;;;;;;;6.6;100.0;103180;;;;
2023/02/04 04:32:00;;;;;;;1.3;1.3;;;;;;;6.6;100.0;103180;;;;
2023/02/04 04:33:00;;;;;;;1.3;1.3;;;;;;;6.6;100.0;103170;;;;
2023/02/04 04:34:00;;;;;;;1.3;1.3;;;;;;;6.6;100.0;103170;;;;
2023/02/04 04:35:00;;;;;;;1.3;1.3;;;;;;;6.6;100.0;103180;;;;
2023/02/04 04:36:00;;;;;;;1.3;1.3;;;;;;;6.6;100.0;103180;;;;
2023/02/04 04:37:00;;;;;;;1.3;1.3;;;;;;;6.6;100.0;103180;;;;
2023/02/04 04:38:01;;;;;;;1.4;1.4;;;;;;;6.6;100.0;103180;;;;
2023/02/04 04:39:00;;;;;;;1.4;1.4;;;;;;;6.6;100.0;103180;;;;
2023/02/04 04:40:01;;;;;;;1.4;1.4;;;;;;;6.6;100.0;103180;;;;
2023/02/04 04:41:00;;;;;;;1.4;1.4;;;;;;;6.6;100.0;103180;;;;
2023/02/04 04:42:00;;;;;;;1.4;1.4;;;;;;;6.6;100.0;103180;;;;
2023/02/04 04:43:00;;;;;;;1.4;1.4;;;;;;;6.5;100.0;103180;;;;
2023/02/04 04:44:00;;;;;;;1.4;1.4;;;;;;;6.5;100.0;103180;;;;
2023/02/04 04:45:00;;;;;;;1.4;1.4;;;;;;;6.5;100.0;103180;;;;
2023/02/04 04:46:00;;;;;;;1.4;1.4;;;;;;;6.5;100.0;103180;;;;
2023/02/04 04:47:02;;;;;;;1.4;1.4;;;;;;;6.5;100.0;103180;;;;
2023/02/04 04:48:00;;;;;;;1.4;1.4;;;;;;;6.5;100.0;103180;;;;
2023/02/04 04:49:00;;;;;;;1.4;1.4;;;;;;;6.5;100.0;103180;;;;
2023/02/04 04:50:00;;;;;;;1.4;1.4;;;;;;;6.5;100.0;103180;;;;
2023/02/04 04:51:00;;;;;;;1.4;1.4;;;;;;;6.4;100.0;103180;;;;
2023/02/04 04:52:00;;;;;;;1.4;1.4;;;;;;;6.4;100.0;103180;;;;
2023/02/04 04:53:00;;;;;;;1.4;1.4;;;;;;;6.4;100.0;103180;;;;
2023/02/04 04:54:00;;;;;;;1.4;1.4;;;;;;;6.4;100.0;103180;;;;
2023/02/04 04:55:00;;;;;;;1.4;1.4;;;;;;;6.4;100.0;103180;;;;
2023/02/04 04:56:00;;;;;;;1.4;1.4;;;;;;;6.4;100.0;103180;;;;
2023/02/04 04:57:00;;;;;;;1.6;1.6;;;;;;;6.4;100.0;103180;;;;
2023/02/04 04:58:00;;;;;;;1.6;1.6;;;;;;;6.4;100.0;103180;;;;
2023/02/04 04:59:02;;;;;;;1.6;1.6;;;;;;;6.4;100.0;103180;;;;
2023/02/04 05:00:00;;;;;;;1.6;1.6;;;;;;;6.4;100.0;103180;;;;
2023/02/04 05:01:00;;;;;;;1.6;1.6;;;;;;;6.4;100.0;103180;;;;
2023/02/04 05:02:00;;;;;;;1.6;1.6;;;;;;;6.4;100.0;103180;;;;
2023/02/04 05:03:00;;;;;;;1.6;1.6;;;;;;;6.4;100.0;103180;;;;
2023/02/04 05:04:02;;;;;;;1.6;1.6;;;;;;;6.4;100.0;103180;;;;
2023/02/04 05:05:00;;;;;;;1.6;1.6;;;;;;;6.3;100.0;103190;;;;
2023/02/04 05:06:00;;;;;;;1.6;1.6;;;;;;;6.3;100.0;103190;;;;
2023/02/04 05:07:00;;;;;;;1.6;1.6;;;;;;;6.4;100.0;103180;;;;
2023/02/04 05:08:00;;;;;;;1.6;1.6;;;;;;;6.4;100.0;103180;;;;
2023/02/04 05:09:00;;;;;;;1.6;1.6;;;;;;;6.4;100.0;103190;;;;
2023/02/04 05:10:01;;;;;;;1.6;1.6;;;;;;;6.4;100.0;103190;;;;
2023/02/04 05:11:02;;;;;;;1.6;1.6;;;;;;;6.4;100.0;103190;;;;
2023/02/04 05:12:01;;;;;;;1.6;1.6;;;;;;;6.4;100.0;103190;;;;
2023/02/04 05:13:00;;;;;;;1.6;1.6;;;;;;;6.4;100.0;103190;;;;
2023/02/04 05:14:00;;;;;;;1.6;1.6;;;;;;;6.4;100.0;103190;;;;
2023/02/04 05:15:00;;;;;;;1.6;1.6;;;;;;;6.4;100.0;103190;;;;
2023/02/04 05:16:00;;;;;;;1.6;1.6;;;;;;;6.4;100.0;103190;;;;
2023/02/04 05:17:00;;;;;;;1.7;1.7;;;;;;;6.4;100.0;103190;;;;
2023/02/04 05:18:00;;;;;;;1.7;1.7;;;;;;;6.4;100.0;103190;;;;
2023/02/04 05:19:00;;;;;;;1.7;1.7;;;;;;;6.5;100.0;103200;;;;
2023/02/04 05:20:00;;;;;;;1.7;1.7;;;;;;;6.5;100.0;103200;;;;
2023/02/04 05:21:00;;;;;;;1.7;1.7;;;;;;;6.5;100.0;103200;;;;
2023/02/04 05:22:00;;;;;;;1.7;1.7;;;;;;;6.5;100.0;103200;;;;
2023/02/04 05:23:00;;;;;;;1.7;1.7;;;;;;;6.5;100.0;103210;;;;
2023/02/04 05:24:00;;;;;;;1.7;1.7;;;;;;;6.5;100.0;103210;;;;
2023/02/04 05:25:00;;;;;;;1.7;1.7;;;;;;;6.5;100.0;103210;;;;
2023/02/04 05:26:00;;;;;;;1.7;1.7;;;;;;;6.5;100.0;103210;;;;
2023/02/04 05:27:00;;;;;;;1.7;1.7;;;;;;;6.5;100.0;103210;;;;
2023/02/04 05:28:00;;;;;;;1.7;1.7;;;;;;;6.5;100.0;103210;;;;
2023/02/04 05:29:00;;;;;;;1.7;1.7;;;;;;;6.5;100.0;103210;;;;
2023/02/04 05:30:00;;;;;;;1.7;1.7;;;;;;;6.5;100.0;103210;;;;
2023/02/04 05:31:00;;;;;;;1.7;1.7;;;;;;;6.5;100.0;103210;;;;
2023/02/04 05:32:00;;;;;;;1.7;1.7;;;;;;;6.5;100.0;103210;;;;
2023/02/04 05:33:00;;;;;;;1.7;1.7;;;;;;;6.5;100.0;103210;;;;
2023/02/04 05:34:00;;;;;;;1.7;1.7;;;;;;;6.5;100.0;103210;;;;
2023/02/04 05:35:00;;;;;;;1.7;1.7;;;;;;;6.4;100.0;103210;;;;
2023/02/04 05:36:00;;;;;;;1.7;1.7;;;;;;;6.4;100.0;103210;;;;
2023/02/04 05:37:00;;;;;;;1.6;1.6;;;;;;;6.4;100.0;103220;;;;
2023/02/04 05:38:00;;;;;;;1.6;1.6;;;;;;;6.4;100.0;103220;;;;
2023/02/04 05:39:00;;;;;;;1.6;1.6;;;;;;;6.5;100.0;103220;;;;
2023/02/04 05:40:00;;;;;;;1.6;1.6;;;;;;;6.5;100.0;103220;;;;
2023/02/04 05:41:00;;;;;;;1.6;1.6;;;;;;;6.4;100.0;103230;;;;
2023/02/04 05:42:00;;;;;;;1.6;1.6;;;;;;;6.4;100.0;103230;;;;
2023/02/04 05:43:00;;;;;;;1.6;1.6;;;;;;;6.5;100.0;103220;;;;
2023/02/04 05:44:00;;;;;;;1.6;1.6;;;;;;;6.5;100.0;103220;;;;
2023/02/04 05:45:00;;;;;;;1.6;1.6;;;;;;;6.4;100.0;103230;;;;
2023/02/04 05:46:00;;;;;;;1.6;1.6;;;;;;;6.4;100.0;103230;;;;
2023/02/04 05:47:00;;;;;;;1.6;1.6;;;;;;;6.5;100.0;103220;;;;
2023/02/04 05:48:00;;;;;;;1.6;1.6;;;;;;;6.5;100.0;103220;;;;
2023/02/04 05:49:00;;;;;;;1.6;1.6;;;;;;;6.6;100.0;103220;;;;
2023/02/04 05:50:00;;;;;;;1.6;1.6;;;;;;;6.6;100.0;103220;;;;
2023/02/04 05:51:00;;;;;;;1.6;1.6;;;;;;;6.5;100.0;103220;;;;
2023/02/04 05:52:00;;;;;;;1.6;1.6;;;;;;;6.5;100.0;103220;;;;
2023/02/04 05:53:00;;;;;;;1.6;1.6;;;;;;;6.4;100.0;103230;;;;
2023/02/04 05:54:00;;;;;;;1.6;1.6;;;;;;;6.4;100.0;103230;;;;
2023/02/04 05:55:00;;;;;;;1.6;1.6;;;;;;;6.5;100.0;103230;;;;
2023/02/04 05:56:00;;;;;;;1.6;1.6;;;;;;;6.5;100.0;103230;;;;
2023/02/04 05:57:00;;;;;;;1.5;1.5;;;;;;;6.6;100.0;103230;;;;
2023/02/04 05:58:00;;;;;;;1.5;1.5;;;;;;;6.6;100.0;103230;;;;
2023/02/04 05:59:00;;;;;;;1.5;1.5;;;;;;;6.5;100.0;103230;;;;
2023/02/04 06:00:00;;;;;;;1.5;1.5;;;;;;;6.5;100.0;103230;;;;
2023/02/04 06:01:01;;;;;;;1.5;1.5;;;;;;;6.6;100.0;103240;;;;
2023/02/04 06:02:00;;;;;;;1.5;1.5;;;;;;;6.6;100.0;103240;;;;
2023/02/04 06:03:01;;;;;;;1.5;1.5;;;;;;;6.6;100.0;103240;;;;
2023/02/04 06:04:00;;;;;;;1.5;1.5;;;;;;;6.6;100.0;103240;;;;
2023/02/04 06:05:00;;;;;;;1.5;1.5;;;;;;;6.6;100.0;103240;;;;
2023/02/04 06:06:00;;;;;;;1.5;1.5;;;;;;;6.6;100.0;103240;;;;
2023/02/04 06:07:00;;;;;;;1.5;1.5;;;;;;;6.6;100.0;103240;;;;
2023/02/04 06:08:00;;;;;;;1.5;1.5;;;;;;;6.6;100.0;103240;;;;
2023/02/04 06:09:00;;;;;;;1.5;1.5;;;;;;;6.6;100.0;103230;;;;
2023/02/04 06:10:00;;;;;;;1.5;1.5;;;;;;;6.6;100.0;103230;;;;
2023/02/04 06:11:00;;;;;;;1.5;1.5;;;;;;;6.6;100.0;103230;;;;
2023/02/04 06:12:00;;;;;;;1.5;1.5;;;;;;;6.6;100.0;103230;;;;
2023/02/04 06:13:00;;;;;;;1.5;1.5;;;;;;;6.6;100.0;103240;;;;
2023/02/04 06:14:00;;;;;;;1.5;1.5;;;;;;;6.6;100.0;103240;;;;
2023/02/04 06:15:00;;;;;;;1.5;1.5;;;;;;;6.6;100.0;103250;;;;
2023/02/04 06:16:00;;;;;;;1.5;1.5;;;;;;;6.6;100.0;103250;;;;
2023/02/04 06:17:00;;;;;;;2.2;2.1;;;;;;;6.6;100.0;103260;;;;
2023/02/04 06:18:00;;;;;;;2.2;2.1;;;;;;;6.6;100.0;103260;;;;
2023/02/04 06:19:00;;;;;;;2.2;2.1;;;;;;;6.5;100.0;103260;;;;
2023/02/04 06:20:00;;;;;;;2.2;2.1;;;;;;;6.5;100.0;103260;;;;
2023/02/04 06:21:03;;;;;;;2.2;2.1;;;;;;;6.5;100.0;103260;;;;
2023/02/04 06:22:00;;;;;;;2.2;2.1;;;;;;;6.5;100.0;103260;;;;
2023/02/04 06:23:00;;;;;;;2.2;2.1;;;;;;;6.5;100.0;103250;;;;
2023/02/04 06:24:00;;;;;;;2.2;2.1;;;;;;;6.5;100.0;103250;;;;
2023/02/04 06:25:00;;;;;;;2.2;2.1;;;;;;;6.5;100.0;103260;;;;
2023/02/04 06:26:01;;;;;;;2.2;2.1;;;;;;;6.5;100.0;103260;;;;
2023/02/04 06:27:00;;;;;;;2.2;2.1;;;;;;;6.6;100.0;103270;;;;
2023/02/04 06:28:00;;;;;;;2.2;2.1;;;;;;;6.6;100.0;103270;;;;
2023/02/04 06:29:00;;;;;;;2.2;2.1;;;;;;;6.6;100.0;103270;;;;